createdAt,value
2018-09-27T00:01:33.013Z,70.54
2018-09-27T00:04:00.606Z,70.32
2018-09-27T00:06:28.210Z,70.74
2018-09-27T00:08:55.790Z,70.68
2018-09-27T00:11:23.382Z,70.71
2018-09-27T00:13:51.250Z,70.69
2018-09-27T00:16:18.834Z,71.06
2018-09-27T00:18:46.506Z,71.26
2018-09-27T00:21:14.122Z,71.65
2018-09-27T00:23:41.724Z,72.17
2018-09-27T00:26:09.562Z,72.44
2018-09-27T00:28:37.165Z,72.88
2018-09-27T00:31:04.786Z,72.65
2018-09-27T00:33:32.409Z,72.94
2018-09-27T00:35:59.984Z,72.58
2018-09-27T00:38:27.754Z,72.77
2018-09-27T00:40:55.346Z,73.34
2018-09-27T00:43:22.917Z,73.45
2018-09-27T00:45:51.240Z,73.63
2018-09-27T00:48:18.870Z,73.56
2018-09-27T00:50:46.970Z,73.39
2018-09-27T00:53:14.542Z,73.19
2018-09-27T00:55:42.167Z,73.01
2018-09-27T00:58:10.259Z,72.90
2018-09-27T01:00:38.222Z,72.75
2018-09-27T01:03:05.809Z,72.75
2018-09-27T01:05:33.426Z,72.78
2018-09-27T01:08:00.995Z,73.21
2018-09-27T01:10:28.530Z,73.13
2018-09-27T01:12:56.040Z,73.45
2018-09-27T01:15:23.602Z,73.86
2018-09-27T01:17:51.365Z,73.50
2018-09-27T01:20:18.888Z,73.54
2018-09-27T01:22:46.438Z,73.73
2018-09-27T01:25:14.002Z,73.53
2018-09-27T01:27:41.489Z,73.85
2018-09-27T01:30:09.039Z,74.27
2018-09-27T01:32:37.030Z,74.26
2018-09-27T01:35:04.515Z,73.84
2018-09-27T01:37:32.093Z,73.85
2018-09-27T01:40:00.199Z,73.41
2018-09-27T01:42:27.712Z,73.58
2018-09-27T01:44:55.213Z,73.69
2018-09-27T01:47:22.716Z,74.36
2018-09-27T01:49:50.228Z,74.23
2018-09-27T01:52:17.727Z,74.13
2018-09-27T01:54:45.243Z,74.05
2018-09-27T01:57:12.741Z,73.91
2018-09-27T01:59:41.003Z,74.19
2018-09-27T02:02:09.238Z,74.20
2018-09-27T02:04:36.746Z,73.88
2018-09-27T02:07:04.293Z,73.68
2018-09-27T02:09:31.855Z,73.69
2018-09-27T02:11:59.370Z,73.80
2018-09-27T02:14:26.881Z,73.71
2018-09-27T02:16:54.389Z,73.66
2018-09-27T02:19:21.907Z,73.49
2018-09-27T02:21:49.391Z,73.38
2018-09-27T02:24:16.910Z,74.12
2018-09-27T02:26:44.455Z,73.82
2018-09-27T02:29:11.940Z,73.92
2018-09-27T02:31:39.451Z,74.18
2018-09-27T02:34:07.022Z,74.18
2018-09-27T02:36:34.578Z,74.33
2018-09-27T02:39:02.317Z,74.07
2018-09-27T02:41:29.838Z,73.85
2018-09-27T02:43:57.331Z,74.10
2018-09-27T02:46:24.867Z,74.40
2018-09-27T02:48:52.391Z,74.61
2018-09-27T02:51:19.898Z,74.60
2018-09-27T02:53:47.418Z,74.73
2018-09-27T02:56:14.983Z,75.18
2018-09-27T02:58:42.499Z,75.25
2018-09-27T03:01:10.249Z,75.20
2018-09-27T03:03:37.796Z,74.93
2018-09-27T03:06:05.408Z,75.66
2018-09-27T03:08:33.511Z,75.46
2018-09-27T03:11:01.023Z,75.66
2018-09-27T03:13:28.530Z,76.00
2018-09-27T03:15:56.054Z,76.17
2018-09-27T03:18:23.655Z,75.26
2018-09-27T03:20:51.200Z,75.17
2018-09-27T03:23:18.695Z,74.21
2018-09-27T03:25:46.495Z,74.12
2018-09-27T03:28:13.998Z,73.56
2018-09-27T03:30:41.494Z,74.72
2018-09-27T03:33:09.009Z,75.64
2018-09-27T03:35:36.535Z,75.83
2018-09-27T03:38:04.404Z,76.54
2018-09-27T03:40:31.969Z,76.42
2018-09-27T03:42:59.445Z,76.66
2018-09-27T03:45:27.028Z,76.56
2018-09-27T03:47:54.663Z,76.34
2018-09-27T03:50:22.138Z,76.40
2018-09-27T03:52:49.809Z,76.91
2018-09-27T03:55:17.306Z,77.14
2018-09-27T03:57:44.827Z,77.02
2018-09-27T04:00:12.362Z,76.98
2018-09-27T04:02:39.886Z,77.21
2018-09-27T04:05:07.398Z,77.25
2018-09-27T04:07:34.890Z,77.15
2018-09-27T04:10:02.407Z,76.42
2018-09-27T04:12:29.950Z,76.70
2018-09-27T04:14:57.441Z,76.99
2018-09-27T04:17:24.947Z,77.20
2018-09-27T04:19:52.451Z,77.35
2018-09-27T04:22:20.681Z,77.52
2018-09-27T04:24:48.530Z,77.79
2018-09-27T04:27:16.030Z,77.61
2018-09-27T04:29:43.530Z,77.60
2018-09-27T04:32:11.367Z,77.34
2018-09-27T04:34:38.877Z,77.48
2018-09-27T04:37:06.473Z,77.82
2018-09-27T04:39:34.022Z,77.60
2018-09-27T04:42:01.580Z,77.51
2018-09-27T04:44:29.078Z,77.06
2018-09-27T04:46:56.980Z,77.16
2018-09-27T04:49:24.501Z,77.33
2018-09-27T04:51:52.021Z,77.19
2018-09-27T04:54:20.629Z,77.18
2018-09-27T04:56:48.094Z,76.47
2018-09-27T04:59:15.645Z,76.39
2018-09-27T05:01:43.151Z,76.20
2018-09-27T05:04:10.814Z,76.69
2018-09-27T05:06:38.339Z,76.35
2018-09-27T05:09:06.331Z,76.54
2018-09-27T05:11:33.854Z,76.72
2018-09-27T05:14:01.432Z,76.29
2018-09-27T05:16:28.984Z,76.83
2018-09-27T05:18:56.586Z,77.24
2018-09-27T05:21:24.162Z,78.25
2018-09-27T05:23:51.679Z,78.03
2018-09-27T05:26:19.169Z,77.81
2018-09-27T05:28:46.671Z,78.08
2018-09-27T05:31:14.182Z,77.93
2018-09-27T05:33:41.787Z,77.53
2018-09-27T05:36:09.271Z,77.83
2018-09-27T05:38:36.817Z,77.96
2018-09-27T05:41:04.320Z,77.58
2018-09-27T05:43:31.838Z,78.09
2018-09-27T05:45:59.418Z,77.97
2018-09-27T05:48:26.911Z,77.74
2018-09-27T05:50:54.425Z,76.86
2018-09-27T05:53:22.069Z,77.13
2018-09-27T05:55:49.609Z,76.04
2018-09-27T05:58:17.499Z,74.66
2018-09-27T06:00:45.066Z,72.91
2018-09-27T06:03:12.594Z,71.78
2018-09-27T06:05:40.119Z,70.25
2018-09-27T06:08:07.634Z,69.26
2018-09-27T06:10:35.211Z,67.96
2018-09-27T06:13:02.752Z,66.86
2018-09-27T06:15:30.265Z,65.39
2018-09-27T06:17:58.078Z,63.76
2018-09-27T06:20:25.564Z,62.64
2018-09-27T06:22:53.072Z,60.95
2018-09-27T06:25:20.601Z,60.12
2018-09-27T06:27:48.091Z,59.30
2018-09-27T06:30:15.612Z,58.42
2018-09-27T06:32:43.126Z,58.16
2018-09-27T06:35:11.013Z,57.51
2018-09-27T06:37:38.442Z,57.52
2018-09-27T06:40:06.188Z,57.28
2018-09-27T06:42:33.715Z,56.97
2018-09-27T06:45:01.214Z,55.58
2018-09-27T06:47:28.722Z,55.42
2018-09-27T06:49:56.247Z,55.71
2018-09-27T06:52:23.775Z,55.85
2018-09-27T06:54:51.399Z,56.40
2018-09-27T06:57:18.843Z,56.79
2018-09-27T06:59:46.362Z,56.26
2018-09-27T07:02:13.878Z,55.75
2018-09-27T07:04:41.454Z,55.54
2018-09-27T07:07:09.004Z,55.43
2018-09-27T07:09:36.503Z,55.58
2018-09-27T07:12:04.098Z,54.05
2018-09-27T07:14:31.593Z,52.69
2018-09-27T07:16:59.127Z,51.03
2018-09-27T07:19:26.590Z,49.76
2018-09-27T07:21:54.081Z,45.88
2018-09-27T07:24:21.903Z,44.82
2018-09-27T07:26:49.950Z,43.28
2018-09-27T07:29:17.278Z,40.62
2018-09-27T07:31:44.828Z,38.94
2018-09-27T07:34:12.326Z,37.13
2018-09-27T07:36:39.883Z,36.34
2018-09-27T07:39:08.414Z,33.59
2018-09-27T07:41:35.898Z,31.85
2018-09-27T07:44:03.418Z,30.77
2018-09-27T07:46:30.934Z,31.78
2018-09-27T07:48:58.435Z,31.81
2018-09-27T07:51:25.929Z,31.79
2018-09-27T07:53:53.704Z,31.09
2018-09-27T07:56:21.205Z,31.15
2018-09-27T07:58:48.696Z,29.68
2018-09-27T08:01:16.231Z,28.65
2018-09-27T08:03:43.790Z,27.63
2018-09-27T08:06:11.353Z,25.45
2018-09-27T08:08:38.893Z,24.30
2018-09-27T08:11:06.517Z,24.91
2018-09-27T08:13:34.028Z,23.77
2018-09-27T08:16:02.155Z,24.13
2018-09-27T08:18:29.670Z,21.23
2018-09-27T08:20:57.440Z,21.61
2018-09-27T08:23:24.894Z,21.55
2018-09-27T08:25:52.413Z,20.76
2018-09-27T08:28:19.991Z,19.94
2018-09-27T08:30:47.574Z,20.07
2018-09-27T08:33:15.063Z,19.72
2018-09-27T08:35:42.590Z,17.41
2018-09-27T08:38:10.149Z,17.26
2018-09-27T08:40:37.662Z,16.01
2018-09-27T08:43:05.178Z,16.64
2018-09-27T08:45:32.870Z,14.79
2018-09-27T08:48:00.281Z,15.59
2018-09-27T08:50:27.944Z,15.84
2018-09-27T08:52:55.518Z,14.65
2018-09-27T08:55:23.166Z,14.64
2018-09-27T08:57:50.694Z,14.55
2018-09-27T09:00:18.279Z,15.05
2018-09-27T09:02:45.854Z,14.66
2018-09-27T09:05:13.419Z,14.18
2018-09-27T09:07:41.033Z,13.16
2018-09-27T09:10:08.574Z,12.80
2018-09-27T09:12:36.276Z,12.53
2018-09-27T09:15:03.891Z,13.10
2018-09-27T09:17:31.431Z,14.10
2018-09-27T09:19:58.998Z,14.65
2018-09-27T09:22:26.566Z,13.40
2018-09-27T09:24:54.091Z,13.76
2018-09-27T09:27:21.643Z,13.25
2018-09-27T09:29:49.344Z,13.07
2018-09-27T09:32:16.816Z,11.94
2018-09-27T09:34:44.349Z,12.30
2018-09-27T09:37:11.889Z,11.80
2018-09-27T09:39:39.454Z,11.97
2018-09-27T09:42:07.323Z,11.85
2018-09-27T09:44:34.864Z,11.59
2018-09-27T09:47:02.469Z,12.40
2018-09-27T09:49:30.068Z,12.20
2018-09-27T09:51:57.990Z,12.53
2018-09-27T09:54:25.678Z,13.55
2018-09-27T09:56:53.226Z,12.59
2018-09-27T09:59:20.900Z,12.90
2018-09-27T10:01:48.413Z,12.58
2018-09-27T10:04:15.999Z,12.16
2018-09-27T10:06:43.735Z,13.03
2018-09-27T10:09:11.699Z,13.04
2018-09-27T10:11:39.279Z,13.38
2018-09-27T10:14:07.350Z,13.04
2018-09-27T10:16:35.286Z,12.49
2018-09-27T10:19:02.814Z,13.28
2018-09-27T10:21:30.440Z,11.99
2018-09-27T10:23:57.959Z,13.03
2018-09-27T10:26:25.520Z,12.38
2018-09-27T10:28:53.106Z,11.99
2018-09-27T10:31:20.745Z,12.88
2018-09-27T10:33:48.286Z,13.34
2018-09-27T10:36:15.826Z,12.99
2018-09-27T10:38:43.430Z,12.54
2018-09-27T10:41:11.214Z,11.97
2018-09-27T10:43:39.038Z,12.87
2018-09-27T10:46:06.626Z,13.14
2018-09-27T10:48:34.490Z,12.57
2018-09-27T10:51:02.141Z,12.07
2018-09-27T10:53:29.706Z,12.44
2018-09-27T10:55:57.354Z,13.59
2018-09-27T10:58:24.929Z,14.47
2018-09-27T11:00:52.538Z,14.78
2018-09-27T11:03:20.127Z,15.72
2018-09-27T11:05:47.693Z,16.35
2018-09-27T11:08:15.249Z,18.55
2018-09-27T11:10:42.869Z,19.30
2018-09-27T11:13:10.432Z,19.75
2018-09-27T11:15:37.974Z,20.11
2018-09-27T11:18:05.607Z,22.04
2018-09-27T11:20:33.149Z,20.74
2018-09-27T11:23:00.918Z,20.96
2018-09-27T11:25:28.502Z,20.98
2018-09-27T11:27:56.041Z,21.88
2018-09-27T11:30:29.362Z,21.70
2018-09-27T11:32:56.911Z,21.11
2018-09-27T11:35:24.593Z,20.56
2018-09-27T11:37:52.131Z,20.37
2018-09-27T11:40:19.683Z,20.25
2018-09-27T11:42:47.362Z,19.94
2018-09-27T11:45:14.901Z,20.17
2018-09-27T11:47:42.474Z,18.94
2018-09-27T11:50:10.159Z,17.89
2018-09-27T11:52:38.173Z,17.54
2018-09-27T11:55:05.862Z,16.95
2018-09-27T11:57:33.429Z,16.92
2018-09-27T12:00:01.000Z,16.20
2018-09-27T12:02:28.536Z,16.89
2018-09-27T12:04:56.126Z,16.36
2018-09-27T12:07:23.736Z,17.08
2018-09-27T12:09:51.262Z,16.91
2018-09-27T12:12:21.258Z,17.94
2018-09-27T12:14:48.835Z,18.86
2018-09-27T12:17:16.410Z,17.98
2018-09-27T12:19:44.015Z,17.38
2018-09-27T12:22:11.571Z,18.49
2018-09-27T12:24:39.157Z,19.91
2018-09-27T12:27:06.727Z,20.60
2018-09-27T12:29:34.390Z,19.82
2018-09-27T12:32:02.552Z,19.73
2018-09-27T12:34:30.115Z,19.54
2018-09-27T12:36:57.757Z,19.45
2018-09-27T12:39:25.300Z,19.03
2018-09-27T12:41:52.866Z,19.52
2018-09-27T12:44:20.742Z,19.53
2018-09-27T12:46:48.324Z,19.34
2018-09-27T12:49:15.817Z,18.41
2018-09-27T12:51:43.480Z,20.20
2018-09-27T12:54:10.965Z,19.71
2018-09-27T12:56:39.055Z,19.60
2018-09-27T12:59:06.850Z,20.09
2018-09-27T13:01:34.502Z,20.19
2018-09-27T13:04:02.018Z,18.48
2018-09-27T13:06:29.549Z,19.29
2018-09-27T13:08:57.135Z,19.56
2018-09-27T13:11:24.626Z,20.17
2018-09-27T13:13:52.192Z,20.28
2018-09-27T13:16:19.746Z,20.16
2018-09-27T13:18:47.294Z,20.21
2018-09-27T13:21:14.886Z,20.42
2018-09-27T13:23:42.435Z,20.34
2018-09-27T13:26:09.979Z,20.22
2018-09-27T13:28:37.573Z,20.02
2018-09-27T13:31:05.377Z,20.09
2018-09-27T13:33:32.955Z,20.94
2018-09-27T13:36:00.552Z,20.68
2018-09-27T13:38:28.092Z,20.83
2018-09-27T13:40:55.793Z,21.25
2018-09-27T13:43:23.338Z,20.95
2018-09-27T13:45:50.925Z,21.41
2018-09-27T13:48:18.539Z,21.15
2018-09-27T13:50:46.140Z,21.00
2018-09-27T13:53:13.706Z,21.46
2018-09-27T13:55:41.254Z,21.38
2018-09-27T13:58:08.804Z,21.39
2018-09-27T14:00:36.384Z,21.78
2018-09-27T14:03:04.332Z,20.91
2018-09-27T14:05:31.976Z,20.88
2018-09-27T14:07:59.505Z,21.08
2018-09-27T14:10:27.047Z,21.34
2018-09-27T14:12:54.613Z,21.63
2018-09-27T14:15:22.303Z,22.25
2018-09-27T14:17:49.860Z,21.74
2018-09-27T14:20:17.466Z,22.49
2018-09-27T14:22:45.010Z,21.93
2018-09-27T14:25:12.578Z,22.30
2018-09-27T14:27:40.134Z,22.67
2018-09-27T14:30:08.651Z,23.02
2018-09-27T14:32:36.391Z,23.04
2018-09-27T14:35:03.931Z,24.67
2018-09-27T14:37:31.466Z,25.06
2018-09-27T14:39:59.034Z,25.75
2018-09-27T14:42:26.589Z,25.53
2018-09-27T14:44:54.157Z,25.71
2018-09-27T14:47:21.731Z,26.54
2018-09-27T14:49:49.344Z,26.43
2018-09-27T14:52:16.908Z,26.69
2018-09-27T14:54:44.536Z,25.88
2018-09-27T14:57:12.083Z,25.28
2018-09-27T14:59:39.742Z,25.49
2018-09-27T15:02:07.264Z,26.87
2018-09-27T15:04:34.879Z,27.29
2018-09-27T15:07:02.400Z,27.47
2018-09-27T15:09:30.038Z,27.38
2018-09-27T15:11:57.531Z,28.26
2018-09-27T15:14:25.168Z,27.64
2018-09-27T15:16:52.711Z,28.32
2018-09-27T15:19:20.337Z,28.19
2018-09-27T15:21:47.922Z,28.52
2018-09-27T15:24:15.498Z,28.38
2018-09-27T15:26:43.063Z,29.39
2018-09-27T15:29:10.614Z,28.42
2018-09-27T15:31:38.151Z,28.57
2018-09-27T15:34:05.755Z,28.78
2018-09-27T15:36:33.377Z,29.49
2018-09-27T15:39:00.955Z,29.20
2018-09-27T15:41:28.864Z,29.48
2018-09-27T15:43:56.465Z,29.91
2018-09-27T15:46:24.063Z,29.74
2018-09-27T15:48:51.610Z,30.08
2018-09-27T15:51:19.248Z,29.60
2018-09-27T15:53:46.828Z,29.42
2018-09-27T15:56:14.411Z,30.69
2018-09-27T15:58:42.295Z,30.38
2018-09-27T16:01:09.781Z,29.80
2018-09-27T16:03:37.349Z,30.66
2018-09-27T16:06:05.283Z,30.26
2018-09-27T16:08:32.840Z,30.32
2018-09-27T16:11:00.419Z,29.88
2018-09-27T16:13:28.026Z,30.19
2018-09-27T16:15:55.750Z,30.15
2018-09-27T16:18:23.348Z,30.84
2018-09-27T16:20:50.915Z,31.57
2018-09-27T16:23:18.520Z,31.39
2018-09-27T16:25:46.090Z,31.71
2018-09-27T16:28:13.714Z,31.94
2018-09-27T16:30:41.723Z,31.46
2018-09-27T16:33:09.262Z,31.40
2018-09-27T16:35:37.694Z,31.89
2018-09-27T16:38:05.336Z,32.00
2018-09-27T16:40:33.686Z,31.82
2018-09-27T16:43:01.232Z,32.32
2018-09-27T16:45:28.777Z,31.95
2018-09-27T16:47:56.548Z,32.39
2018-09-27T16:50:24.122Z,32.43
2018-09-27T16:52:51.714Z,32.66
2018-09-27T16:55:19.305Z,32.35
2018-09-27T16:57:47.004Z,32.28
2018-09-27T17:00:14.949Z,32.38
2018-09-27T17:02:42.524Z,32.35
2018-09-27T17:05:10.138Z,34.43
2018-09-27T17:07:37.760Z,35.74
2018-09-27T17:10:05.593Z,36.10
2018-09-27T17:12:33.179Z,37.66
2018-09-27T17:15:00.722Z,38.57
2018-09-27T17:17:28.514Z,38.80
2018-09-27T17:19:56.151Z,39.64
2018-09-27T17:22:23.763Z,38.90
2018-09-27T17:24:51.336Z,39.71
2018-09-27T17:27:18.892Z,40.78
2018-09-27T17:29:46.488Z,40.79
2018-09-27T17:32:14.061Z,40.58
2018-09-27T17:34:41.654Z,41.27
2018-09-27T17:37:09.506Z,41.29
2018-09-27T17:39:37.078Z,41.31
2018-09-27T17:42:04.634Z,42.09
2018-09-27T17:44:32.211Z,42.43
2018-09-27T17:46:59.795Z,43.03
2018-09-27T17:49:27.432Z,43.18
2018-09-27T17:51:54.973Z,43.00
2018-09-27T17:54:22.558Z,43.64
2018-09-27T17:56:50.131Z,44.44
2018-09-27T17:59:17.743Z,44.07
2018-09-27T18:01:45.405Z,44.10
2018-09-27T18:04:12.956Z,45.50
2018-09-27T18:06:40.546Z,46.08
2018-09-27T18:09:08.633Z,46.85
2018-09-27T18:11:36.360Z,47.42
2018-09-27T18:14:03.957Z,47.68
2018-09-27T18:16:31.570Z,46.95
2018-09-27T18:18:59.109Z,46.17
2018-09-27T18:21:26.727Z,45.34
2018-09-27T18:23:54.327Z,45.61
2018-09-27T18:26:22.101Z,46.20
2018-09-27T18:28:49.723Z,46.97
2018-09-27T18:31:17.317Z,47.33
2018-09-27T18:33:44.882Z,46.30
2018-09-27T18:36:12.488Z,46.60
2018-09-27T18:38:40.278Z,47.10
2018-09-27T18:41:07.867Z,47.31
2018-09-27T18:43:35.446Z,48.23
2018-09-27T18:46:03.099Z,48.50
2018-09-27T18:48:30.689Z,48.74
2018-09-27T18:50:58.293Z,49.91
2018-09-27T18:53:25.899Z,50.09
2018-09-27T18:55:53.472Z,50.64
2018-09-27T18:58:21.035Z,51.31
2018-09-27T19:00:48.687Z,51.48
2018-09-27T19:03:16.304Z,51.32
2018-09-27T19:05:43.883Z,52.09
2018-09-27T19:08:11.463Z,52.34
2018-09-27T19:10:39.066Z,52.43
2018-09-27T19:13:06.646Z,52.40
2018-09-27T19:15:34.226Z,52.47
2018-09-27T19:18:01.823Z,52.43
2018-09-27T19:20:29.415Z,53.11
2018-09-27T19:22:57.226Z,53.11
2018-09-27T19:25:24.798Z,53.13
2018-09-27T19:27:52.346Z,53.45
2018-09-27T19:30:19.958Z,53.73
2018-09-27T19:32:47.524Z,53.86
2018-09-27T19:35:15.270Z,53.64
2018-09-27T19:37:42.827Z,54.03
2018-09-27T19:40:10.439Z,54.70
2018-09-27T19:42:38.684Z,55.16
2018-09-27T19:45:06.230Z,55.08
2018-09-27T19:47:33.784Z,55.99
2018-09-27T19:50:01.431Z,55.25
2018-09-27T19:52:28.995Z,55.86
2018-09-27T19:54:56.595Z,56.06
2018-09-27T19:57:24.166Z,56.58
2018-09-27T19:59:51.763Z,57.05
2018-09-27T20:02:19.389Z,56.74
2018-09-27T20:04:46.961Z,57.23
2018-09-27T20:07:14.489Z,57.53
2018-09-27T20:09:42.080Z,57.79
2018-09-27T20:12:09.623Z,58.11
2018-09-27T20:14:37.454Z,58.50
2018-09-27T20:17:05.139Z,58.24
2018-09-27T20:19:32.692Z,58.68
2018-09-27T20:22:00.302Z,58.65
2018-09-27T20:24:28.083Z,58.66
2018-09-27T20:26:55.631Z,59.31
2018-09-27T20:29:23.186Z,58.75
2018-09-27T20:31:50.779Z,59.48
2018-09-27T20:34:18.422Z,58.74
2018-09-27T20:36:46.189Z,59.51
2018-09-27T20:39:13.747Z,59.20
2018-09-27T20:41:41.345Z,59.65
2018-09-27T20:44:08.934Z,59.86
2018-09-27T20:46:36.621Z,59.99
2018-09-27T20:49:04.266Z,59.89
2018-09-27T20:51:31.930Z,60.14
2018-09-27T20:53:59.518Z,60.72
2018-09-27T20:56:27.237Z,59.95
2018-09-27T20:58:54.843Z,59.41
2018-09-27T21:01:22.422Z,58.77
2018-09-27T21:03:50.015Z,59.50
2018-09-27T21:06:17.603Z,59.76
2018-09-27T21:08:45.420Z,60.41
2018-09-27T21:11:12.989Z,59.99
2018-09-27T21:13:40.487Z,60.60
2018-09-27T21:16:08.051Z,61.23
2018-09-27T21:18:35.599Z,60.79
2018-09-27T21:21:03.218Z,61.17
2018-09-27T21:23:30.791Z,60.83
2018-09-27T21:25:58.333Z,60.76
2018-09-27T21:28:25.873Z,61.03
2018-09-27T21:30:53.462Z,61.88
2018-09-27T21:33:21.234Z,61.18
2018-09-27T21:35:48.810Z,61.34
2018-09-27T21:38:16.792Z,61.58
2018-09-27T21:40:44.344Z,62.15
2018-09-27T21:43:11.926Z,62.87
2018-09-27T21:45:39.436Z,63.20
2018-09-27T21:48:06.989Z,62.97
2018-09-27T21:50:34.514Z,63.08
2018-09-27T21:53:02.047Z,64.02
2018-09-27T21:55:29.573Z,64.15
2018-09-27T21:57:57.141Z,64.59
2018-09-27T22:00:24.966Z,64.44
2018-09-27T22:02:52.483Z,64.73
2018-09-27T22:05:20.081Z,65.07
2018-09-27T22:07:47.659Z,64.88
2018-09-27T22:10:15.210Z,64.82
2018-09-27T22:12:42.731Z,65.16
2018-09-27T22:15:10.270Z,65.10
2018-09-27T22:17:37.810Z,65.23
2018-09-27T22:20:05.730Z,65.40
2018-09-27T22:22:33.263Z,65.56
2018-09-27T22:25:00.794Z,65.93
2018-09-27T22:27:28.350Z,66.01
2018-09-27T22:29:55.885Z,65.70
2018-09-27T22:32:23.422Z,66.21
2018-09-27T22:34:51.009Z,65.94
2018-09-27T22:37:18.621Z,66.06
2018-09-27T22:39:46.175Z,66.89
2018-09-27T22:42:13.778Z,66.65
2018-09-27T22:44:41.430Z,66.46
2018-09-27T22:47:08.938Z,66.42
2018-09-27T22:49:36.699Z,66.48
2018-09-27T22:52:04.254Z,66.80
2018-09-27T22:54:31.786Z,67.00
2018-09-27T22:56:59.330Z,67.52
2018-09-27T22:59:26.845Z,67.54
2018-09-27T23:01:54.419Z,67.76
2018-09-27T23:04:22.008Z,67.88
2018-09-27T23:06:49.688Z,68.50
2018-09-27T23:09:17.203Z,68.22
2018-09-27T23:11:44.855Z,67.81
2018-09-27T23:14:12.387Z,68.33
2018-09-27T23:16:39.904Z,68.95
2018-09-27T23:19:07.454Z,68.83
2018-09-27T23:21:34.969Z,69.12
2018-09-27T23:24:02.494Z,68.88
2018-09-27T23:26:30.053Z,68.67
2018-09-27T23:28:57.860Z,68.42
2018-09-27T23:31:25.807Z,68.69
2018-09-27T23:33:53.366Z,68.92
2018-09-27T23:36:20.971Z,69.08
2018-09-27T23:38:48.539Z,69.41
2018-09-27T23:41:16.058Z,69.71
2018-09-27T23:43:43.690Z,69.39
2018-09-27T23:46:11.615Z,69.02
2018-09-27T23:48:39.206Z,68.91
2018-09-27T23:51:06.767Z,69.03
2018-09-27T23:53:34.585Z,69.46
2018-09-27T23:56:02.118Z,69.21
2018-09-27T23:58:29.677Z,69.10
